Pocatello Regional Airport
KPIH : now visible

Airfield :











YOU CAN JOIN US ON...

 
LOGIN :

Register | Disclaimer

   EN    FR    IT 

 









Legend :    VFR   Marginal VFR   IFR   Intensive IFR   Very Intensive IFR
Visi :
Ceiling :
>= 8 km
>= 3000ft
5 to 8 km
1000 to 3000 ft
1500m to 5 km
500 to 1000 ft
800 to 1500m
200 to 500 ft
< 800m
< 200 ft
Symbols :   Thunderstorms  Fog  Heavy snow  Heavy precipitations  Wind > 20 kt







- Airport Elevation : 4452 ft
- IATA code : PIH


KPIH - Pocatello Regional

CURRENT METAR :
  • 211653Z 24015KT 10SM BKN024 OVC100 11/04 A3020 RMK AO2 SLP216 T01060044

EXPIRED METARs :
  • 211553Z 24014KT 10SM BKN022 BKN100 10/05 A3019 RMK AO2 SLP212 T01000050
  • 211453Z 22011KT 10SM FEW023 BKN100 09/05 A3018 RMK AO2 SLP209 T00940050 51011

TAF KPIH
Valid from the 21 at 17:00 until the 22 at 12:00 UTC


211714Z 2117/2212 24015KT P6SM BKN024 OVC100
FM212000 25010KT P6SM SCT025 SCT110
FM220200 21006KT P6SM FEW040 FEW080
No reported NOTAMs for that airfield.



MET'MAP, your aeronautical weather chart ! - Copyright ORBIFLY December 2007 - Disclaimer

ORBIFLY MET'MAP TEAM :

Programming & Development : Alexandra Zaïnal
Concept & Development : Baudouin d'Aumeries
Co-Development & Prog : Marc-Olivier Méhu
Technical & hardware support : Manuel Goepfert

Contact : metmap@orbifly.com




SOURCES & CREDITS :

   NOAA       Earth
Advisory